Terminal Aerodrome Forecast
Issued by NWS

Home | Current Version | Previous Version | Graphics & Text | Print | Product List | Glossary On
Versions: 1 2 3 4 5 6 7 8 9 10 11 12 13 14 15 16
000
FTUS43 KGRB 061000 AAA
TAFATW
TAF AMD
KATW 061024Z 0610/0706 08005KT P6SM BKN040 OVC070
      TEMPO 0610/0614 BKN025
     FM061400 10004KT P6SM BKN015 OVC025
     FM061900 13008KT P6SM BKN035=

USA.gov is the U.S. government's official web portal to all federal, state and local government web resources and services.